createdAt,value
2019-02-28T00:01:06.424Z,4.67
2019-02-28T00:03:39.144Z,5.00
2019-02-28T00:06:12.814Z,4.30
2019-02-28T00:08:45.646Z,5.50
2019-02-28T00:11:17.865Z,4.70
2019-02-28T00:13:52.326Z,4.50
2019-02-28T00:16:26.184Z,5.20
2019-02-28T00:18:58.885Z,5.00
2019-02-28T00:21:31.534Z,5.35
2019-02-28T00:24:04.604Z,5.10
2019-02-28T00:26:37.164Z,5.30
2019-02-28T00:29:10.045Z,5.05
2019-02-28T00:31:43.106Z,4.80
2019-02-28T00:34:16.347Z,4.50
2019-02-28T00:36:50.315Z,5.15
2019-02-28T00:39:23.384Z,3.70
2019-02-28T00:41:55.504Z,3.52
2019-02-28T00:44:31.275Z,3.60
2019-02-28T00:47:02.584Z,3.40
2019-02-28T00:49:35.951Z,3.70
2019-02-28T00:52:08.845Z,3.20
2019-02-28T00:54:44.340Z,5.45
2019-02-28T00:57:16.024Z,4.45
2019-02-28T00:59:49.546Z,4.70
2019-02-28T01:02:21.924Z,4.42
2019-02-28T01:04:54.707Z,4.95
2019-02-28T01:07:27.866Z,5.00
2019-02-28T01:10:01.435Z,5.67
2019-02-28T01:12:34.804Z,5.90
2019-02-28T01:15:10.055Z,4.60
2019-02-28T01:17:42.464Z,4.25
2019-02-28T01:20:16.717Z,4.55
2019-02-28T01:22:49.706Z,6.53
2019-02-28T01:25:23.385Z,5.60
2019-02-28T01:27:55.624Z,6.72
2019-02-28T01:30:27.764Z,8.65
2019-02-28T01:33:00.824Z,7.85
2019-02-28T01:35:37.566Z,6.60
2019-02-28T01:38:08.944Z,7.97
2019-02-28T01:40:41.625Z,6.58
2019-02-28T01:43:15.184Z,7.90
2019-02-28T01:45:48.305Z,8.73
2019-02-28T01:48:22.614Z,8.88
2019-02-28T01:50:56.625Z,8.33
2019-02-28T01:53:29.085Z,8.40
2019-02-28T01:56:02.505Z,8.63
2019-02-28T01:58:35.504Z,9.28
2019-02-28T02:01:06.984Z,7.95
2019-02-28T02:03:40.827Z,8.60
2019-02-28T02:06:14.705Z,5.53
2019-02-28T02:08:46.846Z,5.45
2019-02-28T02:11:19.305Z,4.78
2019-02-28T02:13:52.626Z,4.65
2019-02-28T02:16:27.691Z,4.33
2019-02-28T02:18:59.227Z,4.70
2019-02-28T02:21:31.446Z,4.30
2019-02-28T02:24:05.646Z,4.45
2019-02-28T02:26:38.745Z,4.05
2019-02-28T02:29:10.625Z,5.00
2019-02-28T02:31:43.830Z,4.45
2019-02-28T02:34:16.746Z,3.85
2019-02-28T02:36:54.174Z,3.37
2019-02-28T02:39:25.491Z,3.80
2019-02-28T02:41:58.288Z,3.70
2019-02-28T02:44:32.046Z,3.92
2019-02-28T02:47:06.288Z,3.25
2019-02-28T02:49:39.087Z,2.90
2019-02-28T02:52:11.806Z,2.80
2019-02-28T02:54:44.265Z,2.83
2019-02-28T02:57:16.845Z,3.37
2019-02-28T02:59:49.105Z,3.40
2019-02-28T03:02:22.425Z,3.60
2019-02-28T03:04:58.520Z,3.60
2019-02-28T03:07:29.266Z,3.45
2019-02-28T03:10:01.787Z,3.65
2019-02-28T03:12:34.125Z,3.85
2019-02-28T03:15:06.546Z,4.65
2019-02-28T03:17:39.006Z,5.47
2019-02-28T03:20:11.577Z,6.22
2019-02-28T03:22:44.575Z,4.60
2019-02-28T03:25:17.784Z,4.00
2019-02-28T03:27:55.048Z,3.50
2019-02-28T03:30:28.353Z,4.50
2019-02-28T03:32:59.405Z,4.00
2019-02-28T03:35:41.471Z,3.33
2019-02-28T03:38:10.370Z,3.12
2019-02-28T03:40:41.159Z,2.80
2019-02-28T03:43:13.789Z,2.87
2019-02-28T03:45:46.483Z,2.75
2019-02-28T03:48:18.928Z,2.83
2019-02-28T03:50:55.386Z,3.02
2019-02-28T03:53:25.386Z,2.35
2019-02-28T03:55:57.828Z,2.75
2019-02-28T03:58:29.805Z,3.50
2019-02-28T04:01:08.753Z,3.72
2019-02-28T04:03:36.625Z,3.20
2019-02-28T04:06:10.026Z,3.00
2019-02-28T04:08:42.047Z,3.15
2019-02-28T04:11:14.906Z,3.17
2019-02-28T04:13:47.325Z,3.58
2019-02-28T04:16:20.528Z,3.00
2019-02-28T04:18:53.065Z,3.80
2019-02-28T04:21:25.745Z,4.12
2019-02-28T04:23:58.526Z,3.98
2019-02-28T04:26:31.082Z,4.10
2019-02-28T04:29:04.045Z,4.12
2019-02-28T04:31:36.825Z,4.28
2019-02-28T04:34:13.476Z,3.98
2019-02-28T04:36:44.791Z,5.08
2019-02-28T04:39:17.786Z,4.53
2019-02-28T04:41:49.639Z,4.33
2019-02-28T04:44:22.385Z,3.75
2019-02-28T04:46:55.805Z,3.27
2019-02-28T04:49:28.673Z,3.42
2019-02-28T04:52:01.267Z,2.40
2019-02-28T04:54:33.684Z,3.17
2019-02-28T04:57:06.687Z,3.10
2019-02-28T04:59:39.485Z,3.17
2019-02-28T05:02:12.025Z,4.00
2019-02-28T05:04:45.024Z,3.75
2019-02-28T05:07:18.006Z,3.33
2019-02-28T05:09:50.567Z,3.85
2019-02-28T05:12:23.346Z,4.67
2019-02-28T05:14:58.498Z,3.35
2019-02-28T05:17:30.946Z,3.62
2019-02-28T05:20:03.205Z,3.70
2019-02-28T05:22:36.469Z,5.20
2019-02-28T05:25:09.324Z,8.30
2019-02-28T05:27:41.624Z,3.10
2019-02-28T05:30:18.477Z,3.20
2019-02-28T05:32:49.547Z,3.12
2019-02-28T05:35:25.497Z,3.15
2019-02-28T05:37:56.784Z,3.80
2019-02-28T05:40:29.625Z,3.10
2019-02-28T05:43:02.287Z,2.92
2019-02-28T05:45:34.625Z,3.70
2019-02-28T05:48:07.189Z,4.08
2019-02-28T05:50:40.195Z,4.20
2019-02-28T05:53:14.004Z,3.85
2019-02-28T05:55:46.664Z,5.55
2019-02-28T05:58:20.851Z,4.40
2019-02-28T06:00:53.625Z,4.60
2019-02-28T06:03:25.784Z,6.08
2019-02-28T06:05:58.772Z,6.00
2019-02-28T06:08:32.207Z,6.00
2019-02-28T06:11:03.844Z,5.80
2019-02-28T06:13:37.137Z,5.08
2019-02-28T06:16:12.403Z,4.95
2019-02-28T06:18:44.525Z,5.00
2019-02-28T06:21:17.646Z,7.95
2019-02-28T06:23:50.904Z,8.85
2019-02-28T06:26:23.024Z,9.18
2019-02-28T06:28:55.924Z,9.80
2019-02-28T06:31:29.604Z,9.60
2019-02-28T06:34:05.610Z,14.15
2019-02-28T06:36:37.946Z,12.23
2019-02-28T06:39:11.606Z,10.30
2019-02-28T06:41:44.064Z,10.20
2019-02-28T06:44:17.064Z,11.55
2019-02-28T06:46:49.504Z,11.97
2019-02-28T06:49:22.885Z,11.05
2019-02-28T06:51:56.444Z,10.88
2019-02-28T06:54:28.285Z,11.55
2019-02-28T06:57:00.925Z,11.80
2019-02-28T06:59:36.195Z,11.28
2019-02-28T07:02:09.065Z,10.40
2019-02-28T07:04:45.455Z,9.00
2019-02-28T07:07:17.144Z,7.97
2019-02-28T07:09:49.927Z,8.80
2019-02-28T07:12:22.707Z,8.65
2019-02-28T07:14:54.525Z,9.88
2019-02-28T07:17:27.917Z,10.65
2019-02-28T07:20:01.957Z,9.48
2019-02-28T07:22:34.865Z,9.53
2019-02-28T07:25:09.577Z,9.55
2019-02-28T07:27:42.758Z,9.58
2019-02-28T07:30:18.473Z,11.20
2019-02-28T07:32:50.874Z,10.63
2019-02-28T07:35:24.585Z,11.40
2019-02-28T07:37:58.456Z,11.22
2019-02-28T07:40:30.592Z,9.78
2019-02-28T07:43:03.845Z,14.10
2019-02-28T07:45:36.884Z,16.00
2019-02-28T07:48:09.765Z,11.03
2019-02-28T07:50:43.481Z,12.75
2019-02-28T07:53:16.252Z,13.13
2019-02-28T07:55:48.886Z,11.12
2019-02-28T07:58:21.685Z,10.48
2019-02-28T08:00:54.424Z,11.83
2019-02-28T08:03:27.349Z,11.73
2019-02-28T08:06:04.566Z,9.43
2019-02-28T08:08:34.572Z,14.90
2019-02-28T08:11:08.024Z,13.93
2019-02-28T08:13:40.406Z,13.78
2019-02-28T08:16:13.085Z,11.35
2019-02-28T08:18:45.766Z,7.80
2019-02-28T08:21:19.232Z,9.00
2019-02-28T08:23:52.500Z,7.47
2019-02-28T08:26:24.778Z,7.62
2019-02-28T08:28:57.540Z,7.85
2019-02-28T08:31:32.017Z,6.28
2019-02-28T08:34:04.642Z,11.30
2019-02-28T08:36:37.702Z,10.00
2019-02-28T08:39:18.966Z,3.30
2019-02-28T08:41:51.826Z,3.72
2019-02-28T08:44:24.106Z,2.17
2019-02-28T08:46:57.722Z,3.98
2019-02-28T08:49:29.310Z,5.20
2019-02-28T08:52:02.563Z,2.30
2019-02-28T08:54:36.981Z,2.40
2019-02-28T08:57:09.641Z,2.15
2019-02-28T08:59:42.444Z,1.65
2019-02-28T09:02:14.531Z,2.85
2019-02-28T09:04:50.893Z,1.90
2019-02-28T09:07:22.973Z,2.65
2019-02-28T09:09:54.998Z,2.10
2019-02-28T09:12:29.938Z,1.95
2019-02-28T09:15:01.226Z,2.58
2019-02-28T09:17:33.397Z,4.40
2019-02-28T09:20:07.466Z,2.52
2019-02-28T09:22:40.219Z,3.50
2019-02-28T09:25:14.217Z,2.85
2019-02-28T09:27:47.269Z,4.03
2019-02-28T09:30:26.580Z,4.33
2019-02-28T09:32:58.240Z,4.30
2019-02-28T09:35:30.525Z,5.67
2019-02-28T09:38:06.357Z,5.75
2019-02-28T09:40:36.750Z,5.80
2019-02-28T09:43:09.565Z,6.08
2019-02-28T09:45:42.365Z,5.42
2019-02-28T09:48:14.903Z,4.87
2019-02-28T09:50:48.038Z,3.87
2019-02-28T09:53:19.834Z,4.62
2019-02-28T09:55:51.973Z,6.87
2019-02-28T09:58:26.216Z,3.70
2019-02-28T10:00:58.593Z,6.05
2019-02-28T10:03:30.974Z,5.62
2019-02-28T10:06:03.495Z,4.58
2019-02-28T10:08:36.874Z,4.40
2019-02-28T10:11:09.433Z,5.90
2019-02-28T10:13:41.775Z,5.97
2019-02-28T10:16:16.758Z,4.40
2019-02-28T10:18:48.173Z,5.65
2019-02-28T10:21:20.512Z,4.80
2019-02-28T10:23:56.814Z,6.20
2019-02-28T10:26:27.515Z,6.57
2019-02-28T10:29:01.198Z,9.00
2019-02-28T10:31:37.344Z,5.80
2019-02-28T10:34:09.687Z,7.97
2019-02-28T10:36:44.397Z,6.80
2019-02-28T10:39:16.308Z,5.90
2019-02-28T10:41:49.408Z,6.27
2019-02-28T10:44:22.171Z,5.70
2019-02-28T10:46:54.604Z,7.27
2019-02-28T10:49:27.310Z,5.50
2019-02-28T10:52:00.090Z,6.40
2019-02-28T10:54:34.011Z,6.97
2019-02-28T10:57:07.611Z,7.40
2019-02-28T10:59:40.666Z,6.97
2019-02-28T11:02:18.953Z,8.00
2019-02-28T11:04:49.398Z,7.10
2019-02-28T11:07:22.268Z,7.13
2019-02-28T11:09:58.482Z,6.30
2019-02-28T11:12:30.412Z,6.43
2019-02-28T11:15:03.809Z,5.57
2019-02-28T11:17:36.230Z,9.40
2019-02-28T11:20:21.658Z,8.23
2019-02-28T11:22:45.409Z,8.00
2019-02-28T11:25:18.234Z,8.37
2019-02-28T11:27:53.726Z,8.97
2019-02-28T11:30:24.892Z,8.53
2019-02-28T11:32:57.288Z,8.80
2019-02-28T11:35:30.594Z,8.37
2019-02-28T11:38:04.906Z,8.17
2019-02-28T11:40:40.404Z,8.47
2019-02-28T11:43:12.362Z,7.03
2019-02-28T11:45:45.262Z,8.83
2019-02-28T11:48:20.111Z,9.10
2019-02-28T11:50:52.065Z,9.93
2019-02-28T11:53:24.796Z,8.33
2019-02-28T11:55:57.341Z,9.90
2019-02-28T11:58:30.497Z,9.00
2019-02-28T12:01:04.238Z,10.57
2019-02-28T12:03:36.619Z,9.47
2019-02-28T12:06:09.477Z,9.27
2019-02-28T12:08:44.907Z,10.07
2019-02-28T12:11:15.876Z,9.37
2019-02-28T12:13:51.696Z,10.17
2019-02-28T12:16:23.657Z,11.20
2019-02-28T12:18:56.216Z,9.33
2019-02-28T12:21:28.736Z,12.80
2019-02-28T12:24:00.710Z,10.07
2019-02-28T12:26:33.937Z,10.47
2019-02-28T12:29:09.358Z,11.90
2019-02-28T12:31:41.137Z,18.40
2019-02-28T12:34:15.147Z,15.93
2019-02-28T12:36:49.364Z,10.40
2019-02-28T12:39:23.704Z,10.60
2019-02-28T12:41:56.565Z,9.17
2019-02-28T12:44:30.190Z,11.40
2019-02-28T12:47:06.442Z,11.50
2019-02-28T12:49:38.739Z,10.90
2019-02-28T12:52:14.508Z,10.30
2019-02-28T12:54:45.935Z,11.93
2019-02-28T12:57:19.280Z,10.17
2019-02-28T12:59:52.623Z,10.47
2019-02-28T13:02:25.366Z,10.10
2019-02-28T13:04:59.726Z,11.30
2019-02-28T13:07:33.849Z,10.90
2019-02-28T13:10:06.407Z,11.27
2019-02-28T13:12:39.326Z,11.90
2019-02-28T13:15:14.229Z,10.60
2019-02-28T13:17:47.511Z,12.27
2019-02-28T13:20:22.111Z,17.10
2019-02-28T13:22:55.651Z,12.50
2019-02-28T13:25:29.991Z,11.63
2019-02-28T13:28:02.917Z,11.90
2019-02-28T13:30:36.063Z,12.17
2019-02-28T13:33:11.009Z,10.57
2019-02-28T13:35:47.144Z,11.03
2019-02-28T13:38:19.730Z,11.17
2019-02-28T13:40:55.093Z,10.90
2019-02-28T13:43:31.981Z,14.77
2019-02-28T13:46:05.030Z,12.87
2019-02-28T13:48:37.470Z,10.30
2019-02-28T13:51:10.806Z,12.50
2019-02-28T13:53:44.137Z,12.77
2019-02-28T13:56:18.071Z,12.93
2019-02-28T13:58:53.677Z,12.73
2019-02-28T14:01:24.781Z,11.47
2019-02-28T14:03:57.658Z,12.77
2019-02-28T14:06:29.761Z,12.10
2019-02-28T14:09:02.817Z,11.30
2019-02-28T14:11:37.084Z,13.83
2019-02-28T14:14:09.458Z,12.13
2019-02-28T14:16:42.119Z,11.10
2019-02-28T14:19:16.803Z,13.50
2019-02-28T14:21:48.257Z,11.50
2019-02-28T14:24:20.637Z,15.07
2019-02-28T14:26:53.415Z,13.47
2019-02-28T14:29:25.735Z,11.37
2019-02-28T14:31:58.436Z,11.00
2019-02-28T14:34:31.195Z,9.73
2019-02-28T14:37:04.515Z,11.53
2019-02-28T14:39:36.476Z,10.10
2019-02-28T14:42:08.628Z,9.63
2019-02-28T14:44:40.956Z,10.83
2019-02-28T14:47:13.655Z,10.77
2019-02-28T14:49:45.860Z,9.37
2019-02-28T14:52:17.587Z,9.90
2019-02-28T14:54:49.459Z,10.10
2019-02-28T14:57:21.918Z,10.97
2019-02-28T14:59:54.369Z,11.33
2019-02-28T15:02:28.717Z,11.20
2019-02-28T15:05:00.557Z,11.47
2019-02-28T15:07:35.326Z,10.63
2019-02-28T15:10:09.680Z,10.77
2019-02-28T15:12:42.861Z,10.70
2019-02-28T15:15:18.025Z,12.30
2019-02-28T15:17:51.629Z,11.40
2019-02-28T15:20:24.618Z,12.20
2019-02-28T15:22:59.587Z,11.23
2019-02-28T15:25:32.140Z,11.73
2019-02-28T15:28:05.100Z,13.93
2019-02-28T15:30:38.398Z,14.70
2019-02-28T15:33:11.921Z,11.87
2019-02-28T15:35:46.531Z,12.70
2019-02-28T15:38:19.439Z,13.13
2019-02-28T15:40:52.279Z,14.60
2019-02-28T15:43:24.818Z,11.67
2019-02-28T15:45:57.462Z,11.70
2019-02-28T15:48:31.377Z,11.57
2019-02-28T15:51:05.578Z,12.30
2019-02-28T15:53:39.239Z,12.60
2019-02-28T15:56:13.634Z,13.00
2019-02-28T15:58:46.702Z,15.70
2019-02-28T16:01:20.502Z,11.43
2019-02-28T16:03:52.980Z,13.40
2019-02-28T16:06:26.179Z,11.70
2019-02-28T16:08:58.945Z,13.47
2019-02-28T16:11:31.959Z,14.33
2019-02-28T16:14:14.011Z,14.43
2019-02-28T16:16:39.601Z,13.77
2019-02-28T16:19:12.680Z,17.30
2019-02-28T16:21:45.262Z,15.43
2019-02-28T16:24:18.920Z,15.00
2019-02-28T16:26:53.395Z,17.63
2019-02-28T16:29:25.560Z,18.33
2019-02-28T16:31:57.918Z,18.53
2019-02-28T16:34:31.159Z,17.80
2019-02-28T16:37:03.899Z,15.80
2019-02-28T16:39:37.139Z,15.93
2019-02-28T16:42:11.590Z,18.80
2019-02-28T16:44:43.280Z,15.90
2019-02-28T16:47:15.880Z,24.13
2019-02-28T16:49:48.999Z,16.83
2019-02-28T16:52:22.802Z,15.53
2019-02-28T16:54:56.271Z,13.80
2019-02-28T16:57:29.818Z,13.63
2019-02-28T17:00:04.018Z,14.73
2019-02-28T17:02:36.778Z,17.23
2019-02-28T17:05:09.219Z,21.97
2019-02-28T17:07:43.654Z,16.20
2019-02-28T17:10:18.542Z,41.73
2019-02-28T17:13:12.905Z,17.27
2019-02-28T17:15:55.892Z,16.63
2019-02-28T17:18:26.278Z,17.57
2019-02-28T17:20:59.779Z,18.20
2019-02-28T17:23:33.616Z,17.97
2019-02-28T17:26:07.439Z,17.23
2019-02-28T17:29:01.639Z,21.17
2019-02-28T17:31:53.618Z,15.70
2019-02-28T17:34:26.622Z,14.07
2019-02-28T17:36:59.158Z,15.80
2019-02-28T17:39:33.312Z,13.50
2019-02-28T17:42:08.785Z,14.03
2019-02-28T17:45:16.470Z,14.70
2019-02-28T17:48:25.619Z,15.87
2019-02-28T17:51:55.507Z,16.00
2019-02-28T17:54:54.208Z,14.30
2019-02-28T17:57:56.843Z,14.90
2019-02-28T18:01:15.219Z,14.90
2019-02-28T18:04:13.239Z,13.70
2019-02-28T18:07:26.423Z,12.40
2019-02-28T18:10:29.977Z,11.00
2019-02-28T18:13:55.261Z,12.80
2019-02-28T18:16:54.577Z,14.07
2019-02-28T18:19:55.760Z,16.73
2019-02-28T18:23:10.318Z,10.70
2019-02-28T18:26:05.723Z,11.30
2019-02-28T18:29:26.878Z,14.30
2019-02-28T18:31:59.058Z,11.13
2019-02-28T18:34:33.396Z,13.20
2019-02-28T18:37:06.528Z,12.50
2019-02-28T18:39:40.039Z,13.90
2019-02-28T18:42:16.123Z,12.37
2019-02-28T18:44:47.240Z,14.30
2019-02-28T18:47:21.258Z,13.47
2019-02-28T18:49:53.943Z,12.60
2019-02-28T18:52:27.578Z,14.17
2019-02-28T18:55:06.151Z,14.50
2019-02-28T18:57:36.038Z,15.33
2019-02-28T19:00:10.918Z,14.53
2019-02-28T19:02:43.326Z,14.23
2019-02-28T19:05:16.278Z,18.12
2019-02-28T19:07:49.058Z,16.03
2019-02-28T19:10:22.160Z,14.90
2019-02-28T19:12:55.580Z,15.77
2019-02-28T19:15:28.638Z,16.13
2019-02-28T19:18:00.659Z,15.77
2019-02-28T19:20:33.898Z,14.80
2019-02-28T19:23:06.421Z,27.33
2019-02-28T19:25:38.658Z,16.90
2019-02-28T19:28:11.060Z,22.30
2019-02-28T19:30:44.123Z,25.83
2019-02-28T19:33:16.419Z,25.17
2019-02-28T19:35:49.338Z,24.40
2019-02-28T19:38:22.378Z,23.97
2019-02-28T19:40:55.979Z,22.83
2019-02-28T19:43:29.579Z,20.17
2019-02-28T19:46:03.200Z,20.97
2019-02-28T19:48:37.738Z,19.40
2019-02-28T19:51:10.800Z,18.47
2019-02-28T19:53:44.217Z,19.20
2019-02-28T19:56:18.118Z,17.80
2019-02-28T19:58:51.397Z,17.23
2019-02-28T20:01:23.184Z,17.43
2019-02-28T20:03:55.860Z,17.80
2019-02-28T20:06:28.898Z,14.70
2019-02-28T20:09:01.299Z,16.57
2019-02-28T20:11:33.999Z,16.27
2019-02-28T20:14:07.179Z,17.37
2019-02-28T20:16:40.219Z,16.03
2019-02-28T20:19:12.781Z,14.33
2019-02-28T20:21:44.858Z,14.40
2019-02-28T20:24:18.539Z,15.27
2019-02-28T20:26:50.799Z,13.97
2019-02-28T20:29:24.158Z,17.03
2019-02-28T20:31:56.821Z,15.90
2019-02-28T20:34:29.299Z,14.07
2019-02-28T20:37:01.739Z,17.10
2019-02-28T20:39:34.420Z,12.90
2019-02-28T20:42:07.262Z,12.47
2019-02-28T20:44:40.940Z,11.40
2019-02-28T20:47:15.499Z,12.00
2019-02-28T20:49:48.382Z,11.33
2019-02-28T20:52:21.643Z,14.07
2019-02-28T20:54:53.839Z,9.87
2019-02-28T20:57:26.659Z,7.90
2019-02-28T20:59:59.919Z,8.63
2019-02-28T21:02:33.477Z,7.57
2019-02-28T21:05:06.659Z,7.63
2019-02-28T21:07:39.459Z,7.90
2019-02-28T21:10:12.598Z,14.00
2019-02-28T21:12:45.498Z,7.15
2019-02-28T21:15:18.519Z,7.17
2019-02-28T21:17:51.537Z,6.73
2019-02-28T21:20:23.539Z,6.78
2019-02-28T21:22:56.390Z,6.58
2019-02-28T21:25:29.919Z,8.48
2019-02-28T21:28:03.699Z,7.20
2019-02-28T21:30:36.737Z,7.15
2019-02-28T21:33:08.942Z,6.55
2019-02-28T21:35:41.558Z,7.00
2019-02-28T21:38:15.658Z,5.87
2019-02-28T21:40:48.402Z,5.70
2019-02-28T21:43:22.408Z,5.92
2019-02-28T21:45:55.159Z,6.12
2019-02-28T21:48:27.598Z,5.60
2019-02-28T21:51:00.359Z,5.78
2019-02-28T21:53:33.277Z,5.70
2019-02-28T21:56:06.879Z,6.30
2019-02-28T21:58:39.158Z,6.05
2019-02-28T22:01:11.357Z,6.33
2019-02-28T22:03:44.939Z,6.90
2019-02-28T22:06:18.500Z,6.25
2019-02-28T22:08:50.037Z,5.80
2019-02-28T22:11:23.099Z,7.15
2019-02-28T22:13:56.438Z,6.45
2019-02-28T22:16:28.579Z,6.15
2019-02-28T22:19:00.657Z,5.20
2019-02-28T22:21:33.219Z,6.03
2019-02-28T22:24:05.177Z,4.80
2019-02-28T22:26:38.178Z,5.20
2019-02-28T22:29:09.878Z,5.85
2019-02-28T22:31:52.516Z,5.85
2019-02-28T22:34:52.898Z,6.00
2019-02-28T22:37:25.098Z,5.67
2019-02-28T22:39:57.558Z,6.30
2019-02-28T22:42:30.601Z,5.80
2019-02-28T22:45:03.506Z,7.28
2019-02-28T22:47:35.678Z,5.33
2019-02-28T22:50:08.598Z,6.33
2019-02-28T22:52:42.338Z,6.17
2019-02-28T22:55:15.337Z,7.30
2019-02-28T22:57:48.681Z,5.45
2019-02-28T23:00:47.618Z,5.67
2019-02-28T23:03:20.157Z,5.25
2019-02-28T23:05:52.999Z,6.40
2019-02-28T23:08:26.619Z,5.50
2019-02-28T23:10:58.883Z,5.90
2019-02-28T23:13:31.539Z,5.05
2019-02-28T23:16:04.119Z,5.60
2019-02-28T23:18:36.139Z,5.92
2019-02-28T23:21:08.980Z,4.90
2019-02-28T23:23:41.598Z,5.35
2019-02-28T23:26:17.579Z,4.37
2019-02-28T23:29:08.460Z,5.55
2019-02-28T23:32:13.559Z,4.80
2019-02-28T23:34:53.578Z,4.42
2019-02-28T23:37:26.197Z,5.40
2019-02-28T23:39:59.277Z,4.65
2019-02-28T23:42:31.875Z,4.85
2019-02-28T23:45:04.298Z,5.05
2019-02-28T23:47:36.618Z,5.00
2019-02-28T23:50:10.597Z,5.12
2019-02-28T23:52:43.978Z,5.00
2019-02-28T23:55:16.240Z,4.37
2019-02-28T23:57:49.098Z,5.55
